Monday, October 15, 2018, 3:33 AM CDT
Back to Local

KOMA, Omaha Eppley Airfield

Location: Omaha, NE, United States Lat: 41.3
Local Time: 3:33 AM CDT ( 8:33 GMT) Lon: -95.9
Time Zone: US/Central Elev: 984 ft

Show me the last for .
Show Decoded

2018-10-15 02:52 METAR KOMA 150752Z 30007KT 10SM OVC041 01/M03 A3033 RMK AO2 SLP280 T00111028 =
2018-10-15 01:52 METAR KOMA 150652Z 29008KT 10SM OVC043 01/M03 A3033 RMK AO2 SLP279 T00111028 =
2018-10-15 00:52 METAR KOMA 150552Z 29008KT 10SM OVC044 01/M03 A3033 RMK AO2 SLP278 T00111028
                 10022 20011 401000000 51017 =
2018-10-14 23:52 METAR KOMA 150452Z 31008KT 10SM BKN044 OVC120 01/M03 A3031 RMK AO2 SLP273
                 T00111028 =
2018-10-14 22:52 METAR KOMA 150352Z 31008KT 10SM OVC120 01/M03 A3030 RMK AO2 SLP271 T00111028 =
2018-10-14 21:52 METAR KOMA 150252Z 32009KT 10SM BKN039 OVC120 02/M03 A3027 RMK AO2 SLP260
                 T00171028 53019 =
2018-10-14 20:52 METAR KOMA 150152Z 33010KT 10SM BKN031 OVC038 02/M02 A3025 RMK AO2 SLP252
                 T00171022 =
2018-10-14 19:52 METAR KOMA 150052Z 34011KT 10SM OVC035 02/M02 A3024 RMK AO2 SLP246 T00221022 =
2018-10-14 18:52 METAR KOMA 142352Z 34008KT 10SM OVC037 02/M02 A3022 RMK AO2 SLP240 60010
                 T00221022 10022 20000 53004 =
2018-10-14 17:52 METAR KOMA 142252Z 34009KT 10SM OVC032 02/M02 A3020 RMK AO2 SNE20 SLP233 P0000
                 T00221017 =
2018-10-14 17:49 METAR KOMA 142249Z 34009KT 10SM OVC032 02/M02 A3020 RMK AO2 SNE20 P0000 =
2018-10-14 16:52 METAR KOMA 142152Z 35009KT 8SM -SN FEW013 BKN024 OVC055 02/M01 A3020 RMK AO2
                 SNB17 SLP235 P0000 T00171006 =
2018-10-14 15:52 METAR KOMA 142052Z 34015KT 10SM FEW023 BKN029 OVC034 02/M01 A3020 RMK AO2 SNE16
                 SLP231 P0000 60010 T00171011 53006 =
2018-10-14 14:52 METAR KOMA 141952Z 35011KT 4SM -SN BR SCT009 BKN021 OVC047 01/M01 A3017 RMK AO2
                 SLP223 P0002 T00111011 =
2018-10-14 14:45 METAR KOMA 141945Z 35013KT 3SM -SN BR FEW008 BKN021 OVC047 01/M01 A3017 RMK AO2
                 P0002 T00111006 =
2018-10-14 14:42 METAR KOMA 141942Z 35011KT 1 3/4SM -SN BR SCT008 BKN012 OVC047 01/M01 A3017 RMK
                 AO2 P0002 T00111006 =
2018-10-14 14:26 METAR KOMA 141926Z 35012KT 3/4SM R14R/3500V6000FT -SN BR SCT008 BKN011 OVC020
                 01/M01 A3017 RMK AO2 P0001 T00061006 =
2018-10-14 14:09 METAR KOMA 141909Z 35012KT 1SM R14R/P6000FT -SN BR BKN006 OVC015 01/M01 A3018
                 RMK AO2 SFC VIS 1 1/4 P0000 T00061011 $ =
2018-10-14 13:52 METAR KOMA 141852Z 34013G21KT 3/4SM R14R/3000V5000FT -SN BR VV008 01/M01 A3018
                 RMK AO2 SLP224 P0008 T00061006 $ =
2018-10-14 13:41 METAR KOMA 141841Z 34019G24KT 1/4SM R14R/3500V4500FT SN FG VV008 01/M01 A3018
                 RMK AO2 SFC VIS 1/2 P0007 T00061011 $ =
2018-10-14 13:34 METAR KOMA 141834Z 34017G23KT 1/2SM R14R/3500V4500FT SN FG VV006 01/M01 A3019
                 RMK AO2 P0007 T00061011 $ =
2018-10-14 12:59 METAR KOMA 141759Z 36014KT 1/4SM R14R/2000V2600FT +SN FG VV007 01/M01 A3018 RMK
                 AO2 P0001 T00061006 $ =
2018-10-14 12:52 METAR KOMA 141752Z 36013G22KT 1/2SM R14R/2200V3000FT SN FG VV007 01/M01 A3018
                 RMK AO2 PK WND 35026/1726 SLP225 P0004 60015 T00061006 10044 20006 53012 $ =
2018-10-14 12:42 METAR KOMA 141742Z 35018G25KT 1/2SM R14R/3000V5000FT SN FG BKN006 OVC010 01/M01
                 A3017 RMK AO2 PK WND 35026/1726 P0003 T00061006 $ =
2018-10-14 11:52 METAR KOMA 141652Z COR 35016G27KT 1/2SM R14R/2200V3500FT SN FG VV006 01/M01
                 A3015 RMK AO2 PK WND 35028/1641 SLP215 P0008 T00061006 $ =
2018-10-14 11:28 METAR KOMA 141628Z 35018G26KT 1/4SM R14R/2400V3500FT +SN FG OVC006 01/M01 A3014
                 RMK AO2 PK WND 35027/1617 P0005 T00061006 =
2018-10-14 11:20 METAR KOMA 141620Z 35017G27KT 1/2SM R14R/3000V3500FT SN FG BKN004 OVC010 01/M01
                 A3014 RMK AO2 PK WND 35027/1617 P0004 T00061006 =
2018-10-14 11:11 METAR KOMA 141611Z 35011KT 3/4SM R14R/3500V6000FT -SN BR SCT007 OVC014 01/M01
                 A3014 RMK AO2 P0002 T00111006 =
2018-10-14 10:59 METAR KOMA 141559Z 35014G20KT 1SM R14R/5000VP6000FT -SN BR SCT007 OVC014 01/00
                 A3014 RMK AO2 P0001 T00110000 =
2018-10-14 10:52 METAR KOMA 141552Z 36013G22KT 1 1/2SM -SN BR SCT009 OVC020 02/00 A3014 RMK AO2
                 RAE14 SLP213 P0002 T00170000 =
2018-10-14 10:40 METAR KOMA 141540Z 35015G23KT 1 1/2SM -SN BR SCT009 OVC020 02/00 A3014 RMK AO2
                 RAE14 P0002 T00170000 =
2018-10-14 09:52 METAR KOMA 141452Z 35012KT 3SM -RASN BR SCT011 BKN023 OVC034 02/01 A3014 RMK AO2
                 PK WND 36029/1421 DZE02RAB02E13B49SNB09 SLP211 P0001 60001 T00220006 53037 =
2018-10-14 09:08 METAR KOMA 141408Z 36020G28KT 4SM -RA BR BKN009 BKN013 OVC020 03/01 A3011 RMK
                 AO2 PK WND 36028/1406 DZE02RAB02 P0000 T00280006 =
2018-10-14 08:52 METAR KOMA 141352Z 35018G26KT 2 1/2SM -DZ BR BKN009 BKN013 OVC020 03/01 A3010
                 RMK AO2 PK WND 01027/1307 VIS 2V5 SLP197 P0000 T00280011 =
2018-10-14 08:24 METAR KOMA 141324Z 01018KT 4SM -DZ BR BKN007 OVC013 03/02 A3008 RMK AO2 PK WND
                 01027/1307 P0000 T00330017 =
2018-10-14 08:15 METAR KOMA 141315Z 36015G27KT 3SM -DZ BR SCT007 BKN013 OVC021 03/02 A3007 RMK
                 AO2 PK WND 01027/1307 P0000 T00330017 =
2018-10-14 07:59 METAR KOMA 141259Z 35015KT 3SM -DZ BR BKN009 OVC016 03/02 A3007 RMK AO2 P0000
                 T00330017 =
2018-10-14 07:52 METAR KOMA 141252Z 36016G23KT 3SM -DZ BR SCT007 BKN012 OVC016 03/02 A3007 RMK
                 AO2 PK WND 36028/1218 DZB34 SLP185 P0000 T00330017 =
2018-10-14 07:11 METAR KOMA 141211Z 36016G26KT 10SM BKN013 OVC018 04/02 A3004 RMK AO2 PK WND
                 36026/1205 T00390017 =
2018-10-14 06:52 METAR KOMA 141152Z 35017G25KT 10SM OVC016 04/02 A3003 RMK AO2 PK WND 35029/1132
                 RAB09E42 SLP171 P0000 60000 T00440017 10106 20044 53030 =
2018-10-14 06:14 METAR KOMA 141114Z 36019G27KT 10SM -RA OVC015 05/02 A3001 RMK AO2 PK WND
                 35027/1105 RAB09 P0000 T00500017 =
2018-10-14 06:02 METAR KOMA 141102Z 35016G22KT 10SM OVC014 06/02 A3000 RMK AO2 T00560017 =
2018-10-14 05:52 METAR KOMA 141052Z 35015G24KT 10SM OVC016 06/02 A3000 RMK AO2 SLP162 T00560022 =
2018-10-14 04:52 METAR KOMA 140952Z 01018KT 10SM OVC015 07/03 A2995 RMK AO2 SLP144 T00670033 =
2018-10-14 03:52 METAR KOMA 140852Z 36015KT 10SM OVC016 08/04 A2994 RMK AO2 SLP138 60000
                 T00780039 53014 =

Support USWX by starting your Amazon purchase here.